sensor_id;sensor_type;location;lat;lon;timestamp;P1;durP1;ratioP1;P2;durP2;ratioP2
70558;SDS011;58108;48.094;11.838;2023-04-03T00:01:43;10.67;;;4.20;;
70558;SDS011;58108;48.094;11.838;2023-04-03T00:04:08;10.77;;;4.27;;
70558;SDS011;58108;48.094;11.838;2023-04-03T00:06:33;10.50;;;4.53;;
70558;SDS011;58108;48.094;11.838;2023-04-03T00:08:59;12.35;;;5.15;;
70558;SDS011;58108;48.094;11.838;2023-04-03T00:11:25;14.33;;;4.97;;
70558;SDS011;58108;48.094;11.838;2023-04-03T00:13:50;12.03;;;5.50;;
70558;SDS011;58108;48.094;11.838;2023-04-03T00:16:15;12.33;;;4.90;;
70558;SDS011;58108;48.094;11.838;2023-04-03T00:18:41;12.20;;;5.30;;
70558;SDS011;58108;48.094;11.838;2023-04-03T00:21:06;11.43;;;4.70;;
70558;SDS011;58108;48.094;11.838;2023-04-03T00:23:33;9.93;;;4.30;;
70558;SDS011;58108;48.094;11.838;2023-04-03T00:25:58;11.38;;;4.75;;
70558;SDS011;58108;48.094;11.838;2023-04-03T00:28:23;12.30;;;5.00;;
70558;SDS011;58108;48.094;11.838;2023-04-03T00:30:49;9.93;;;4.10;;
70558;SDS011;58108;48.094;11.838;2023-04-03T00:33:15;10.10;;;4.30;;
70558;SDS011;58108;48.094;11.838;2023-04-03T00:35:40;10.20;;;4.40;;
70558;SDS011;58108;48.094;11.838;2023-04-03T00:38:05;12.60;;;5.10;;
70558;SDS011;58108;48.094;11.838;2023-04-03T00:40:35;13.87;;;4.40;;
70558;SDS011;58108;48.094;11.838;2023-04-03T00:43:00;11.23;;;4.63;;
70558;SDS011;58108;48.094;11.838;2023-04-03T00:45:28;11.53;;;4.73;;
70558;SDS011;58108;48.094;11.838;2023-04-03T00:47:53;12.07;;;4.73;;
70558;SDS011;58108;48.094;11.838;2023-04-03T00:50:19;11.73;;;4.50;;
70558;SDS011;58108;48.094;11.838;2023-04-03T00:52:45;11.38;;;4.50;;
70558;SDS011;58108;48.094;11.838;2023-04-03T00:55:11;10.63;;;5.03;;
70558;SDS011;58108;48.094;11.838;2023-04-03T00:57:37;10.50;;;4.43;;
70558;SDS011;58108;48.094;11.838;2023-04-03T01:00:05;11.10;;;4.63;;
70558;SDS011;58108;48.094;11.838;2023-04-03T01:02:31;10.60;;;4.28;;
70558;SDS011;58108;48.094;11.838;2023-04-03T01:04:56;11.53;;;4.80;;
70558;SDS011;58108;48.094;11.838;2023-04-03T01:07:22;11.10;;;4.90;;
70558;SDS011;58108;48.094;11.838;2023-04-03T01:09:49;10.45;;;4.57;;
70558;SDS011;58108;48.094;11.838;2023-04-03T01:14:42;11.55;;;4.60;;
70558;SDS011;58108;48.094;11.838;2023-04-03T01:19:52;10.43;;;4.57;;
70558;SDS011;58108;48.094;11.838;2023-04-03T01:22:25;11.75;;;4.80;;
70558;SDS011;58108;48.094;11.838;2023-04-03T01:24:51;13.20;;;5.28;;
70558;SDS011;58108;48.094;11.838;2023-04-03T01:27:18;12.00;;;4.77;;
70558;SDS011;58108;48.094;11.838;2023-04-03T01:29:43;11.87;;;4.70;;
70558;SDS011;58108;48.094;11.838;2023-04-03T01:32:08;11.63;;;4.80;;
70558;SDS011;58108;48.094;11.838;2023-04-03T01:34:34;11.40;;;4.75;;
70558;SDS011;58108;48.094;11.838;2023-04-03T01:36:59;12.80;;;4.80;;
70558;SDS011;58108;48.094;11.838;2023-04-03T01:39:25;10.23;;;4.40;;
70558;SDS011;58108;48.094;11.838;2023-04-03T01:41:50;12.80;;;4.67;;
70558;SDS011;58108;48.094;11.838;2023-04-03T01:44:15;10.10;;;4.70;;
70558;SDS011;58108;48.094;11.838;2023-04-03T01:46:41;11.93;;;4.67;;
70558;SDS011;58108;48.094;11.838;2023-04-03T01:49:07;10.50;;;4.45;;
70558;SDS011;58108;48.094;11.838;2023-04-03T01:51:32;11.03;;;4.60;;
70558;SDS011;58108;48.094;11.838;2023-04-03T01:53:58;10.85;;;4.82;;
70558;SDS011;58108;48.094;11.838;2023-04-03T01:56:23;9.87;;;4.30;;
70558;SDS011;58108;48.094;11.838;2023-04-03T01:58:48;10.30;;;4.40;;
70558;SDS011;58108;48.094;11.838;2023-04-03T02:01:13;11.40;;;4.50;;
70558;SDS011;58108;48.094;11.838;2023-04-03T02:03:39;11.93;;;4.70;;
70558;SDS011;58108;48.094;11.838;2023-04-03T02:06:05;12.17;;;4.63;;
70558;SDS011;58108;48.094;11.838;2023-04-03T02:08:30;10.93;;;4.37;;
70558;SDS011;58108;48.094;11.838;2023-04-03T02:10:55;12.37;;;4.97;;
70558;SDS011;58108;48.094;11.838;2023-04-03T02:13:21;9.93;;;3.97;;
70558;SDS011;58108;48.094;11.838;2023-04-03T02:15:46;10.10;;;4.33;;
70558;SDS011;58108;48.094;11.838;2023-04-03T02:18:12;13.00;;;4.22;;
70558;SDS011;58108;48.094;11.838;2023-04-03T02:20:37;12.27;;;4.57;;
70558;SDS011;58108;48.094;11.838;2023-04-03T02:23:03;11.00;;;4.47;;
70558;SDS011;58108;48.094;11.838;2023-04-03T02:25:28;12.10;;;5.30;;
70558;SDS011;58108;48.094;11.838;2023-04-03T02:27:55;11.57;;;4.80;;
70558;SDS011;58108;48.094;11.838;2023-04-03T02:30:20;11.53;;;4.77;;
70558;SDS011;58108;48.094;11.838;2023-04-03T02:32:45;11.50;;;4.63;;
70558;SDS011;58108;48.094;11.838;2023-04-03T02:35:11;11.77;;;4.63;;
70558;SDS011;58108;48.094;11.838;2023-04-03T02:37:36;13.90;;;5.68;;
70558;SDS011;58108;48.094;11.838;2023-04-03T02:40:01;12.13;;;5.03;;
70558;SDS011;58108;48.094;11.838;2023-04-03T02:42:26;15.18;;;5.30;;
70558;SDS011;58108;48.094;11.838;2023-04-03T02:44:52;11.90;;;5.13;;
70558;SDS011;58108;48.094;11.838;2023-04-03T02:47:17;12.30;;;5.10;;
70558;SDS011;58108;48.094;11.838;2023-04-03T02:49:42;11.57;;;4.77;;
70558;SDS011;58108;48.094;11.838;2023-04-03T02:52:10;11.23;;;4.40;;
70558;SDS011;58108;48.094;11.838;2023-04-03T02:54:35;12.87;;;5.00;;
70558;SDS011;58108;48.094;11.838;2023-04-03T02:57:00;11.23;;;4.87;;
70558;SDS011;58108;48.094;11.838;2023-04-03T02:59:25;12.33;;;5.10;;
70558;SDS011;58108;48.094;11.838;2023-04-03T03:01:50;14.17;;;5.07;;
70558;SDS011;58108;48.094;11.838;2023-04-03T03:04:16;11.07;;;4.80;;
70558;SDS011;58108;48.094;11.838;2023-04-03T03:06:41;10.97;;;4.67;;
70558;SDS011;58108;48.094;11.838;2023-04-03T03:09:06;13.55;;;5.30;;
70558;SDS011;58108;48.094;11.838;2023-04-03T03:11:31;11.20;;;5.20;;
70558;SDS011;58108;48.094;11.838;2023-04-03T03:13:57;12.70;;;4.73;;
70558;SDS011;58108;48.094;11.838;2023-04-03T03:16:22;10.23;;;4.67;;
70558;SDS011;58108;48.094;11.838;2023-04-03T03:18:47;11.07;;;5.10;;
70558;SDS011;58108;48.094;11.838;2023-04-03T03:21:12;11.87;;;4.37;;
70558;SDS011;58108;48.094;11.838;2023-04-03T03:23:37;10.90;;;4.67;;
70558;SDS011;58108;48.094;11.838;2023-04-03T03:26:04;11.20;;;4.20;;
70558;SDS011;58108;48.094;11.838;2023-04-03T03:28:29;12.32;;;4.70;;
70558;SDS011;58108;48.094;11.838;2023-04-03T03:30:55;11.07;;;4.30;;
70558;SDS011;58108;48.094;11.838;2023-04-03T03:33:20;10.60;;;4.68;;
70558;SDS011;58108;48.094;11.838;2023-04-03T03:35:46;11.20;;;4.07;;
70558;SDS011;58108;48.094;11.838;2023-04-03T03:38:11;10.30;;;4.30;;
70558;SDS011;58108;48.094;11.838;2023-04-03T03:40:36;11.57;;;4.10;;
70558;SDS011;58108;48.094;11.838;2023-04-03T03:43:02;11.27;;;4.07;;
70558;SDS011;58108;48.094;11.838;2023-04-03T03:45:27;9.93;;;4.33;;
70558;SDS011;58108;48.094;11.838;2023-04-03T03:47:52;11.33;;;4.50;;
70558;SDS011;58108;48.094;11.838;2023-04-03T03:50:17;12.00;;;4.60;;
70558;SDS011;58108;48.094;11.838;2023-04-03T03:52:43;10.63;;;4.57;;
70558;SDS011;58108;48.094;11.838;2023-04-03T03:55:08;10.20;;;4.20;;
70558;SDS011;58108;48.094;11.838;2023-04-03T03:57:33;12.43;;;4.17;;
70558;SDS011;58108;48.094;11.838;2023-04-03T03:59:58;10.20;;;4.33;;
70558;SDS011;58108;48.094;11.838;2023-04-03T04:02:24;8.50;;;3.80;;
70558;SDS011;58108;48.094;11.838;2023-04-03T04:04:49;9.93;;;4.30;;
70558;SDS011;58108;48.094;11.838;2023-04-03T04:07:15;10.95;;;4.47;;
70558;SDS011;58108;48.094;11.838;2023-04-03T04:09:40;10.27;;;3.93;;
70558;SDS011;58108;48.094;11.838;2023-04-03T04:12:05;8.77;;;3.97;;
70558;SDS011;58108;48.094;11.838;2023-04-03T04:14:30;10.00;;;3.90;;
70558;SDS011;58108;48.094;11.838;2023-04-03T04:16:56;10.70;;;4.40;;
70558;SDS011;58108;48.094;11.838;2023-04-03T04:19:21;9.07;;;3.93;;
70558;SDS011;58108;48.094;11.838;2023-04-03T04:21:46;8.80;;;4.10;;
70558;SDS011;58108;48.094;11.838;2023-04-03T04:24:11;9.83;;;4.10;;
70558;SDS011;58108;48.094;11.838;2023-04-03T04:26:36;9.57;;;4.13;;
70558;SDS011;58108;48.094;11.838;2023-04-03T04:29:02;9.43;;;3.77;;
70558;SDS011;58108;48.094;11.838;2023-04-03T04:31:27;9.33;;;3.93;;
70558;SDS011;58108;48.094;11.838;2023-04-03T04:33:52;10.00;;;4.37;;
70558;SDS011;58108;48.094;11.838;2023-04-03T04:36:17;10.60;;;4.27;;
70558;SDS011;58108;48.094;11.838;2023-04-03T04:38:43;9.60;;;3.83;;
70558;SDS011;58108;48.094;11.838;2023-04-03T04:41:08;11.10;;;4.10;;
70558;SDS011;58108;48.094;11.838;2023-04-03T04:43:34;10.23;;;4.00;;
70558;SDS011;58108;48.094;11.838;2023-04-03T04:46:00;10.33;;;4.27;;
70558;SDS011;58108;48.094;11.838;2023-04-03T04:48:25;11.57;;;4.35;;
70558;SDS011;58108;48.094;11.838;2023-04-03T04:50:50;8.90;;;3.67;;
70558;SDS011;58108;48.094;11.838;2023-04-03T04:53:15;11.38;;;4.38;;
70558;SDS011;58108;48.094;11.838;2023-04-03T04:55:40;8.63;;;3.80;;
70558;SDS011;58108;48.094;11.838;2023-04-03T04:58:06;9.57;;;4.10;;
70558;SDS011;58108;48.094;11.838;2023-04-03T05:00:31;9.67;;;3.80;;
70558;SDS011;58108;48.094;11.838;2023-04-03T05:02:56;9.90;;;4.03;;
70558;SDS011;58108;48.094;11.838;2023-04-03T05:05:21;9.00;;;3.73;;
70558;SDS011;58108;48.094;11.838;2023-04-03T05:07:47;9.15;;;4.10;;
70558;SDS011;58108;48.094;11.838;2023-04-03T05:10:12;9.63;;;4.03;;
70558;SDS011;58108;48.094;11.838;2023-04-03T05:12:37;8.20;;;3.47;;
70558;SDS011;58108;48.094;11.838;2023-04-03T05:15:02;8.77;;;4.10;;
70558;SDS011;58108;48.094;11.838;2023-04-03T05:17:28;9.33;;;4.27;;
70558;SDS011;58108;48.094;11.838;2023-04-03T05:19:53;10.00;;;3.83;;
70558;SDS011;58108;48.094;11.838;2023-04-03T05:22:18;9.00;;;3.80;;
70558;SDS011;58108;48.094;11.838;2023-04-03T05:24:43;7.90;;;3.70;;
70558;SDS011;58108;48.094;11.838;2023-04-03T05:27:08;8.30;;;3.10;;
70558;SDS011;58108;48.094;11.838;2023-04-03T05:29:33;9.03;;;3.80;;
70558;SDS011;58108;48.094;11.838;2023-04-03T05:31:59;9.73;;;3.70;;
70558;SDS011;58108;48.094;11.838;2023-04-03T05:34:24;9.20;;;3.83;;
70558;SDS011;58108;48.094;11.838;2023-04-03T05:36:49;10.57;;;3.20;;
70558;SDS011;58108;48.094;11.838;2023-04-03T05:39:15;7.72;;;3.38;;
70558;SDS011;58108;48.094;11.838;2023-04-03T05:41:40;8.23;;;3.40;;
70558;SDS011;58108;48.094;11.838;2023-04-03T05:44:05;9.68;;;3.22;;
70558;SDS011;58108;48.094;11.838;2023-04-03T05:46:30;9.20;;;3.53;;
70558;SDS011;58108;48.094;11.838;2023-04-03T05:48:55;7.73;;;3.23;;
70558;SDS011;58108;48.094;11.838;2023-04-03T05:51:25;9.53;;;4.00;;
70558;SDS011;58108;48.094;11.838;2023-04-03T05:53:53;7.63;;;2.60;;
70558;SDS011;58108;48.094;11.838;2023-04-03T05:56:20;9.30;;;3.80;;
70558;SDS011;58108;48.094;11.838;2023-04-03T05:58:46;7.90;;;3.60;;
70558;SDS011;58108;48.094;11.838;2023-04-03T06:01:11;8.67;;;3.43;;
70558;SDS011;58108;48.094;11.838;2023-04-03T06:03:36;7.38;;;3.20;;
70558;SDS011;58108;48.094;11.838;2023-04-03T06:06:02;8.80;;;3.50;;
70558;SDS011;58108;48.094;11.838;2023-04-03T06:08:28;9.03;;;3.43;;
70558;SDS011;58108;48.094;11.838;2023-04-03T06:10:54;8.52;;;3.20;;
70558;SDS011;58108;48.094;11.838;2023-04-03T06:13:19;8.13;;;3.20;;
70558;SDS011;58108;48.094;11.838;2023-04-03T06:15:44;6.20;;;2.73;;
70558;SDS011;58108;48.094;11.838;2023-04-03T06:18:09;6.73;;;3.00;;
70558;SDS011;58108;48.094;11.838;2023-04-03T06:20:35;7.37;;;3.10;;
70558;SDS011;58108;48.094;11.838;2023-04-03T06:23:00;9.63;;;3.50;;
70558;SDS011;58108;48.094;11.838;2023-04-03T06:25:25;7.60;;;2.80;;
70558;SDS011;58108;48.094;11.838;2023-04-03T06:27:51;8.93;;;3.53;;
70558;SDS011;58108;48.094;11.838;2023-04-03T06:30:16;6.30;;;2.70;;
70558;SDS011;58108;48.094;11.838;2023-04-03T06:32:41;9.10;;;3.20;;
70558;SDS011;58108;48.094;11.838;2023-04-03T06:35:08;9.75;;;3.25;;
70558;SDS011;58108;48.094;11.838;2023-04-03T06:37:33;8.15;;;3.35;;
70558;SDS011;58108;48.094;11.838;2023-04-03T06:39:58;8.83;;;3.17;;
70558;SDS011;58108;48.094;11.838;2023-04-03T06:42:25;7.73;;;3.03;;
70558;SDS011;58108;48.094;11.838;2023-04-03T06:44:50;7.40;;;3.00;;
70558;SDS011;58108;48.094;11.838;2023-04-03T06:47:16;6.37;;;2.97;;
70558;SDS011;58108;48.094;11.838;2023-04-03T06:49:41;7.43;;;2.57;;
70558;SDS011;58108;48.094;11.838;2023-04-03T06:52:07;6.57;;;2.50;;
70558;SDS011;58108;48.094;11.838;2023-04-03T06:54:32;8.65;;;3.00;;
70558;SDS011;58108;48.094;11.838;2023-04-03T06:56:58;6.75;;;2.70;;
70558;SDS011;58108;48.094;11.838;2023-04-03T06:59:23;6.17;;;2.73;;
70558;SDS011;58108;48.094;11.838;2023-04-03T07:01:48;6.40;;;3.00;;
70558;SDS011;58108;48.094;11.838;2023-04-03T07:04:13;6.60;;;2.43;;
70558;SDS011;58108;48.094;11.838;2023-04-03T07:06:39;7.90;;;2.30;;
70558;SDS011;58108;48.094;11.838;2023-04-03T07:09:05;5.88;;;2.10;;
70558;SDS011;58108;48.094;11.838;2023-04-03T07:11:31;7.13;;;2.57;;
70558;SDS011;58108;48.094;11.838;2023-04-03T07:13:56;6.30;;;2.65;;
70558;SDS011;58108;48.094;11.838;2023-04-03T07:16:21;7.77;;;3.47;;
70558;SDS011;58108;48.094;11.838;2023-04-03T07:18:46;6.93;;;3.13;;
70558;SDS011;58108;48.094;11.838;2023-04-03T07:21:12;5.43;;;2.27;;
70558;SDS011;58108;48.094;11.838;2023-04-03T07:23:37;6.20;;;2.67;;
70558;SDS011;58108;48.094;11.838;2023-04-03T07:26:03;8.17;;;2.67;;
70558;SDS011;58108;48.094;11.838;2023-04-03T07:28:28;6.70;;;3.15;;
70558;SDS011;58108;48.094;11.838;2023-04-03T07:30:59;5.30;;;2.50;;
70558;SDS011;58108;48.094;11.838;2023-04-03T07:33:24;5.60;;;1.58;;
70558;SDS011;58108;48.094;11.838;2023-04-03T07:35:50;7.10;;;2.20;;
70558;SDS011;58108;48.094;11.838;2023-04-03T07:38:15;6.53;;;2.30;;
70558;SDS011;58108;48.094;11.838;2023-04-03T07:40:44;5.87;;;2.10;;
70558;SDS011;58108;48.094;11.838;2023-04-03T07:43:10;6.05;;;2.65;;
70558;SDS011;58108;48.094;11.838;2023-04-03T07:45:35;9.07;;;2.47;;
70558;SDS011;58108;48.094;11.838;2023-04-03T07:48:00;6.40;;;2.43;;
70558;SDS011;58108;48.094;11.838;2023-04-03T07:50:26;3.75;;;1.42;;
70558;SDS011;58108;48.094;11.838;2023-04-03T07:52:52;5.93;;;2.50;;
70558;SDS011;58108;48.094;11.838;2023-04-03T07:55:19;4.22;;;1.77;;
70558;SDS011;58108;48.094;11.838;2023-04-03T07:57:44;6.90;;;2.73;;
70558;SDS011;58108;48.094;11.838;2023-04-03T08:00:10;7.13;;;2.97;;
70558;SDS011;58108;48.094;11.838;2023-04-03T08:02:37;7.60;;;2.95;;
70558;SDS011;58108;48.094;11.838;2023-04-03T08:05:02;7.73;;;3.10;;
70558;SDS011;58108;48.094;11.838;2023-04-03T08:07:27;6.72;;;3.00;;
70558;SDS011;58108;48.094;11.838;2023-04-03T08:09:52;7.57;;;3.07;;
70558;SDS011;58108;48.094;11.838;2023-04-03T08:12:17;8.73;;;2.93;;
70558;SDS011;58108;48.094;11.838;2023-04-03T08:14:43;7.15;;;2.95;;
70558;SDS011;58108;48.094;11.838;2023-04-03T08:17:08;8.17;;;4.00;;
70558;SDS011;58108;48.094;11.838;2023-04-03T08:19:36;7.53;;;3.37;;
70558;SDS011;58108;48.094;11.838;2023-04-03T08:22:01;7.78;;;3.33;;
70558;SDS011;58108;48.094;11.838;2023-04-03T08:24:28;7.60;;;3.00;;
70558;SDS011;58108;48.094;11.838;2023-04-03T08:26:53;9.68;;;3.67;;
70558;SDS011;58108;48.094;11.838;2023-04-03T08:29:19;6.97;;;3.40;;
70558;SDS011;58108;48.094;11.838;2023-04-03T08:31:47;6.85;;;2.83;;
70558;SDS011;58108;48.094;11.838;2023-04-03T08:34:13;6.70;;;2.80;;
70558;SDS011;58108;48.094;11.838;2023-04-03T08:36:39;7.57;;;2.80;;
70558;SDS011;58108;48.094;11.838;2023-04-03T08:39:05;6.50;;;2.90;;
70558;SDS011;58108;48.094;11.838;2023-04-03T08:46:32;7.30;;;3.45;;
70558;SDS011;58108;48.094;11.838;2023-04-03T08:49:00;9.40;;;3.58;;
70558;SDS011;58108;48.094;11.838;2023-04-03T08:51:26;6.07;;;2.53;;
70558;SDS011;58108;48.094;11.838;2023-04-03T08:54:03;6.65;;;3.08;;
70558;SDS011;58108;48.094;11.838;2023-04-03T08:56:30;5.93;;;3.00;;
70558;SDS011;58108;48.094;11.838;2023-04-03T08:58:56;6.80;;;3.15;;
70558;SDS011;58108;48.094;11.838;2023-04-03T09:01:24;7.93;;;3.10;;
70558;SDS011;58108;48.094;11.838;2023-04-03T09:03:51;6.50;;;2.65;;
70558;SDS011;58108;48.094;11.838;2023-04-03T09:06:20;9.13;;;3.60;;
70558;SDS011;58108;48.094;11.838;2023-04-03T09:14:01;8.20;;;3.43;;
70558;SDS011;58108;48.094;11.838;2023-04-03T09:16:31;5.60;;;2.05;;
70558;SDS011;58108;48.094;11.838;2023-04-03T09:19:04;6.18;;;2.80;;
70558;SDS011;58108;48.094;11.838;2023-04-03T09:21:38;6.88;;;2.65;;
70558;SDS011;58108;48.094;11.838;2023-04-03T09:24:04;6.00;;;2.85;;
70558;SDS011;58108;48.094;11.838;2023-04-03T09:26:36;6.20;;;3.00;;
70558;SDS011;58108;48.094;11.838;2023-04-03T09:29:05;6.47;;;2.35;;
70558;SDS011;58108;48.094;11.838;2023-04-03T09:31:38;7.72;;;3.40;;
70558;SDS011;58108;48.094;11.838;2023-04-03T09:34:20;8.70;;;3.53;;
70558;SDS011;58108;48.094;11.838;2023-04-03T09:36:47;8.60;;;3.83;;
70558;SDS011;58108;48.094;11.838;2023-04-03T09:39:16;6.67;;;3.30;;
70558;SDS011;58108;48.094;11.838;2023-04-03T09:41:42;6.55;;;3.25;;
70558;SDS011;58108;48.094;11.838;2023-04-03T09:44:23;7.53;;;3.50;;
70558;SDS011;58108;48.094;11.838;2023-04-03T09:46:49;6.38;;;3.15;;
70558;SDS011;58108;48.094;11.838;2023-04-03T09:49:14;6.70;;;2.80;;
70558;SDS011;58108;48.094;11.838;2023-04-03T09:51:40;6.60;;;2.90;;
70558;SDS011;58108;48.094;11.838;2023-04-03T09:54:23;6.43;;;2.80;;
70558;SDS011;58108;48.094;11.838;2023-04-03T09:56:49;7.13;;;3.40;;
70558;SDS011;58108;48.094;11.838;2023-04-03T09:59:14;6.70;;;3.63;;
70558;SDS011;58108;48.094;11.838;2023-04-03T10:01:42;7.75;;;3.58;;
70558;SDS011;58108;48.094;11.838;2023-04-03T10:04:09;7.05;;;3.20;;
70558;SDS011;58108;48.094;11.838;2023-04-03T10:06:36;5.65;;;2.30;;
70558;SDS011;58108;48.094;11.838;2023-04-03T10:09:03;6.57;;;2.10;;
70558;SDS011;58108;48.094;11.838;2023-04-03T10:11:30;7.40;;;3.50;;
70558;SDS011;58108;48.094;11.838;2023-04-03T10:13:56;6.35;;;3.25;;
70558;SDS011;58108;48.094;11.838;2023-04-03T10:16:24;7.47;;;3.13;;
70558;SDS011;58108;48.094;11.838;2023-04-03T10:18:58;7.88;;;3.20;;
70558;SDS011;58108;48.094;11.838;2023-04-03T10:21:32;6.95;;;2.83;;
70558;SDS011;58108;48.094;11.838;2023-04-03T10:24:44;6.60;;;3.00;;
70558;SDS011;58108;48.094;11.838;2023-04-03T10:26:45;6.80;;;2.83;;
70558;SDS011;58108;48.094;11.838;2023-04-03T10:29:21;6.87;;;2.70;;
70558;SDS011;58108;48.094;11.838;2023-04-03T10:36:51;4.38;;;1.25;;
70558;SDS011;58108;48.094;11.838;2023-04-03T10:46:52;7.03;;;3.23;;
70558;SDS011;58108;48.094;11.838;2023-04-03T10:49:21;7.75;;;3.78;;
70558;SDS011;58108;48.094;11.838;2023-04-03T10:54:36;9.85;;;4.03;;
70558;SDS011;58108;48.094;11.838;2023-04-03T10:57:03;7.72;;;3.83;;
70558;SDS011;58108;48.094;11.838;2023-04-03T10:59:31;10.63;;;4.43;;
70558;SDS011;58108;48.094;11.838;2023-04-03T11:02:01;9.02;;;4.10;;
70558;SDS011;58108;48.094;11.838;2023-04-03T11:04:30;9.23;;;4.00;;
70558;SDS011;58108;48.094;11.838;2023-04-03T11:06:58;9.77;;;3.85;;
70558;SDS011;58108;48.094;11.838;2023-04-03T11:09:26;9.55;;;4.55;;
70558;SDS011;58108;48.094;11.838;2023-04-03T11:11:53;8.23;;;3.93;;
70558;SDS011;58108;48.094;11.838;2023-04-03T11:14:28;8.07;;;3.38;;
70558;SDS011;58108;48.094;11.838;2023-04-03T11:19:36;7.82;;;3.60;;
70558;SDS011;58108;48.094;11.838;2023-04-03T11:22:13;7.47;;;2.28;;
70558;SDS011;58108;48.094;11.838;2023-04-03T11:24:41;5.60;;;1.87;;
70558;SDS011;58108;48.094;11.838;2023-04-03T11:27:17;6.15;;;2.40;;
70558;SDS011;58108;48.094;11.838;2023-04-03T11:29:47;6.57;;;2.80;;
70558;SDS011;58108;48.094;11.838;2023-04-03T11:34:58;6.20;;;2.38;;
70558;SDS011;58108;48.094;11.838;2023-04-03T11:39:55;3.78;;;1.30;;
70558;SDS011;58108;48.094;11.838;2023-04-03T11:44:46;5.13;;;2.10;;
70558;SDS011;58108;48.094;11.838;2023-04-03T11:47:11;5.13;;;2.07;;
70558;SDS011;58108;48.094;11.838;2023-04-03T11:50:01;4.57;;;1.40;;
70558;SDS011;58108;48.094;11.838;2023-04-03T12:13:33;5.18;;;2.20;;
70558;SDS011;58108;48.094;11.838;2023-04-03T12:15:58;5.13;;;1.97;;
70558;SDS011;58108;48.094;11.838;2023-04-03T12:18:41;4.63;;;1.50;;
70558;SDS011;58108;48.094;11.838;2023-04-03T12:21:07;6.78;;;1.70;;
70558;SDS011;58108;48.094;11.838;2023-04-03T12:23:33;6.87;;;2.10;;
70558;SDS011;58108;48.094;11.838;2023-04-03T12:26:18;5.43;;;1.85;;
70558;SDS011;58108;48.094;11.838;2023-04-03T12:28:44;6.38;;;2.30;;
70558;SDS011;58108;48.094;11.838;2023-04-03T12:31:11;4.63;;;1.83;;
70558;SDS011;58108;48.094;11.838;2023-04-03T12:33:57;6.73;;;2.07;;
70558;SDS011;58108;48.094;11.838;2023-04-03T12:36:40;6.45;;;2.05;;
70558;SDS011;58108;48.094;11.838;2023-04-03T12:41:52;3.65;;;0.98;;
70558;SDS011;58108;48.094;11.838;2023-04-03T12:44:30;2.85;;;0.93;;
70558;SDS011;58108;48.094;11.838;2023-04-03T12:47:01;3.17;;;1.35;;
70558;SDS011;58108;48.094;11.838;2023-04-03T12:49:35;3.70;;;1.23;;
70558;SDS011;58108;48.094;11.838;2023-04-03T12:54:44;3.92;;;1.45;;
70558;SDS011;58108;48.094;11.838;2023-04-03T12:57:20;10.27;;;3.88;;
70558;SDS011;58108;48.094;11.838;2023-04-03T12:59:46;5.78;;;1.75;;
70558;SDS011;58108;48.094;11.838;2023-04-03T13:04:50;4.63;;;1.40;;
70558;SDS011;58108;48.094;11.838;2023-04-03T13:07:26;3.28;;;0.95;;
70558;SDS011;58108;48.094;11.838;2023-04-03T13:10:38;3.70;;;1.30;;
70558;SDS011;58108;48.094;11.838;2023-04-03T13:12:46;3.35;;;1.10;;
70558;SDS011;58108;48.094;11.838;2023-04-03T13:15:16;2.75;;;0.98;;
70558;SDS011;58108;48.094;11.838;2023-04-03T13:17:43;4.20;;;1.30;;
70558;SDS011;58108;48.094;11.838;2023-04-03T13:20:27;5.03;;;1.33;;
70558;SDS011;58108;48.094;11.838;2023-04-03T13:22:57;3.97;;;1.17;;
70558;SDS011;58108;48.094;11.838;2023-04-03T13:25:25;3.10;;;1.13;;
70558;SDS011;58108;48.094;11.838;2023-04-03T13:27:51;3.45;;;1.30;;
70558;SDS011;58108;48.094;11.838;2023-04-03T13:30:21;4.03;;;1.40;;
70558;SDS011;58108;48.094;11.838;2023-04-03T13:32:48;3.50;;;1.20;;
70558;SDS011;58108;48.094;11.838;2023-04-03T13:35:30;3.42;;;1.10;;
70558;SDS011;58108;48.094;11.838;2023-04-03T13:38:00;3.78;;;1.10;;
70558;SDS011;58108;48.094;11.838;2023-04-03T13:40:25;3.65;;;1.00;;
70558;SDS011;58108;48.094;11.838;2023-04-03T13:43:14;2.93;;;0.80;;
70558;SDS011;58108;48.094;11.838;2023-04-03T13:45:42;2.30;;;0.50;;
70558;SDS011;58108;48.094;11.838;2023-04-03T13:48:18;2.95;;;0.57;;
70558;SDS011;58108;48.094;11.838;2023-04-03T13:53:41;2.42;;;0.20;;
70558;SDS011;58108;48.094;11.838;2023-04-03T13:56:08;2.58;;;0.57;;
70558;SDS011;58108;48.094;11.838;2023-04-03T13:58:34;2.30;;;0.47;;
70558;SDS011;58108;48.094;11.838;2023-04-03T14:01:06;3.65;;;0.80;;
70558;SDS011;58108;48.094;11.838;2023-04-03T14:03:37;2.33;;;0.30;;
70558;SDS011;58108;48.094;11.838;2023-04-03T14:06:06;1.83;;;0.35;;
70558;SDS011;58108;48.094;11.838;2023-04-03T14:08:32;2.42;;;0.57;;
70558;SDS011;58108;48.094;11.838;2023-04-03T14:10:57;2.80;;;0.70;;
70558;SDS011;58108;48.094;11.838;2023-04-03T14:13:22;4.17;;;0.90;;
70558;SDS011;58108;48.094;11.838;2023-04-03T14:15:47;2.93;;;0.60;;
70558;SDS011;58108;48.094;11.838;2023-04-03T14:18:15;2.65;;;0.80;;
70558;SDS011;58108;48.094;11.838;2023-04-03T14:20:40;2.38;;;0.52;;
70558;SDS011;58108;48.094;11.838;2023-04-03T14:23:05;2.30;;;0.80;;
70558;SDS011;58108;48.094;11.838;2023-04-03T14:25:31;2.70;;;0.63;;
70558;SDS011;58108;48.094;11.838;2023-04-03T14:27:56;4.17;;;0.70;;
70558;SDS011;58108;48.094;11.838;2023-04-03T14:30:24;3.27;;;0.67;;
70558;SDS011;58108;48.094;11.838;2023-04-03T14:32:49;3.60;;;0.70;;
70558;SDS011;58108;48.094;11.838;2023-04-03T14:35:15;3.47;;;0.60;;
70558;SDS011;58108;48.094;11.838;2023-04-03T14:37:41;3.58;;;0.80;;
70558;SDS011;58108;48.094;11.838;2023-04-03T14:40:07;3.00;;;0.80;;
70558;SDS011;58108;48.094;11.838;2023-04-03T14:42:34;1.90;;;0.30;;
70558;SDS011;58108;48.094;11.838;2023-04-03T14:45:01;2.35;;;0.38;;
70558;SDS011;58108;48.094;11.838;2023-04-03T14:47:27;2.40;;;0.60;;
70558;SDS011;58108;48.094;11.838;2023-04-03T14:49:53;2.25;;;0.50;;
70558;SDS011;58108;48.094;11.838;2023-04-03T14:52:26;2.53;;;0.50;;
70558;SDS011;58108;48.094;11.838;2023-04-03T14:54:51;2.92;;;0.57;;
70558;SDS011;58108;48.094;11.838;2023-04-03T14:57:17;2.60;;;0.60;;
70558;SDS011;58108;48.094;11.838;2023-04-03T14:59:44;4.80;;;1.60;;
70558;SDS011;58108;48.094;11.838;2023-04-03T15:02:29;5.25;;;0.70;;
70558;SDS011;58108;48.094;11.838;2023-04-03T15:04:55;2.85;;;0.75;;
70558;SDS011;58108;48.094;11.838;2023-04-03T15:07:21;3.20;;;0.77;;
70558;SDS011;58108;48.094;11.838;2023-04-03T15:09:46;3.23;;;0.83;;
70558;SDS011;58108;48.094;11.838;2023-04-03T15:12:12;3.77;;;0.90;;
70558;SDS011;58108;48.094;11.838;2023-04-03T15:14:37;1.13;;;0.30;;
70558;SDS011;58108;48.094;11.838;2023-04-03T15:17:03;1.60;;;0.33;;
70558;SDS011;58108;48.094;11.838;2023-04-03T15:19:29;2.38;;;0.40;;
70558;SDS011;58108;48.094;11.838;2023-04-03T15:21:55;2.78;;;0.57;;
70558;SDS011;58108;48.094;11.838;2023-04-03T15:24:20;4.63;;;1.00;;
70558;SDS011;58108;48.094;11.838;2023-04-03T15:26:47;3.10;;;0.63;;
70558;SDS011;58108;48.094;11.838;2023-04-03T15:29:12;4.55;;;0.85;;
70558;SDS011;58108;48.094;11.838;2023-04-03T15:31:37;2.53;;;0.63;;
70558;SDS011;58108;48.094;11.838;2023-04-03T15:34:02;2.70;;;0.70;;
70558;SDS011;58108;48.094;11.838;2023-04-03T15:36:27;2.93;;;1.03;;
70558;SDS011;58108;48.094;11.838;2023-04-03T15:38:53;2.63;;;0.57;;
70558;SDS011;58108;48.094;11.838;2023-04-03T15:41:18;2.20;;;0.60;;
70558;SDS011;58108;48.094;11.838;2023-04-03T15:43:43;2.40;;;0.90;;